sensor_id;sensor_type;location;lat;lon;timestamp;P1;durP1;ratioP1;P2;durP2;ratioP2
62362;SDS011;48396;48.426;1.500;2023-05-10T00:00:12;4.32;;;1.30;;
62362;SDS011;48396;48.426;1.500;2023-05-10T00:02:38;6.40;;;1.65;;
62362;SDS011;48396;48.426;1.500;2023-05-10T00:05:04;6.13;;;1.63;;
62362;SDS011;48396;48.426;1.500;2023-05-10T00:07:30;3.00;;;1.35;;
62362;SDS011;48396;48.426;1.500;2023-05-10T00:09:56;4.55;;;1.27;;
62362;SDS011;48396;48.426;1.500;2023-05-10T00:12:21;4.93;;;1.50;;
62362;SDS011;48396;48.426;1.500;2023-05-10T00:14:47;6.07;;;1.30;;
62362;SDS011;48396;48.426;1.500;2023-05-10T00:17:12;6.65;;;1.50;;
62362;SDS011;48396;48.426;1.500;2023-05-10T00:19:38;5.22;;;1.80;;
62362;SDS011;48396;48.426;1.500;2023-05-10T00:22:04;7.80;;;1.80;;
62362;SDS011;48396;48.426;1.500;2023-05-10T00:24:29;3.92;;;1.05;;
62362;SDS011;48396;48.426;1.500;2023-05-10T00:26:55;6.85;;;1.58;;
62362;SDS011;48396;48.426;1.500;2023-05-10T00:29:20;5.18;;;1.13;;
62362;SDS011;48396;48.426;1.500;2023-05-10T00:31:46;5.45;;;1.02;;
62362;SDS011;48396;48.426;1.500;2023-05-10T00:34:11;6.03;;;1.25;;
62362;SDS011;48396;48.426;1.500;2023-05-10T00:36:37;4.97;;;1.02;;
62362;SDS011;48396;48.426;1.500;2023-05-10T00:39:03;2.80;;;1.25;;
62362;SDS011;48396;48.426;1.500;2023-05-10T00:41:29;5.57;;;1.23;;
62362;SDS011;48396;48.426;1.500;2023-05-10T00:43:57;6.60;;;1.27;;
62362;SDS011;48396;48.426;1.500;2023-05-10T00:46:23;3.78;;;1.25;;
62362;SDS011;48396;48.426;1.500;2023-05-10T00:48:49;7.50;;;1.50;;
62362;SDS011;48396;48.426;1.500;2023-05-10T00:51:15;4.15;;;1.17;;
62362;SDS011;48396;48.426;1.500;2023-05-10T00:53:41;5.35;;;0.85;;
62362;SDS011;48396;48.426;1.500;2023-05-10T00:56:07;5.80;;;1.40;;
62362;SDS011;48396;48.426;1.500;2023-05-10T00:58:33;7.75;;;1.17;;
62362;SDS011;48396;48.426;1.500;2023-05-10T01:00:58;6.57;;;1.33;;
62362;SDS011;48396;48.426;1.500;2023-05-10T01:03:26;5.32;;;1.25;;
62362;SDS011;48396;48.426;1.500;2023-05-10T01:05:52;3.58;;;1.30;;
62362;SDS011;48396;48.426;1.500;2023-05-10T01:08:18;7.55;;;1.38;;
62362;SDS011;48396;48.426;1.500;2023-05-10T01:10:44;3.78;;;1.10;;
62362;SDS011;48396;48.426;1.500;2023-05-10T01:13:10;4.25;;;1.38;;
62362;SDS011;48396;48.426;1.500;2023-05-10T01:15:37;5.45;;;1.00;;
62362;SDS011;48396;48.426;1.500;2023-05-10T01:18:03;6.63;;;1.45;;
62362;SDS011;48396;48.426;1.500;2023-05-10T01:20:32;6.45;;;1.35;;
62362;SDS011;48396;48.426;1.500;2023-05-10T01:23:17;6.72;;;1.42;;
62362;SDS011;48396;48.426;1.500;2023-05-10T01:34:35;4.53;;;1.40;;
62362;SDS011;48396;48.426;1.500;2023-05-10T01:37:08;2.15;;;1.17;;
62362;SDS011;48396;48.426;1.500;2023-05-10T01:39:47;3.88;;;1.13;;
62362;SDS011;48396;48.426;1.500;2023-05-10T01:42:21;6.03;;;1.65;;
62362;SDS011;48396;48.426;1.500;2023-05-10T01:44:52;4.47;;;1.35;;
62362;SDS011;48396;48.426;1.500;2023-05-10T01:50:22;5.05;;;1.38;;
62362;SDS011;48396;48.426;1.500;2023-05-10T01:52:53;6.90;;;1.20;;
62362;SDS011;48396;48.426;1.500;2023-05-10T01:55:20;6.00;;;1.20;;
62362;SDS011;48396;48.426;1.500;2023-05-10T01:57:50;4.35;;;1.20;;
62362;SDS011;48396;48.426;1.500;2023-05-10T02:00:21;5.15;;;1.48;;
62362;SDS011;48396;48.426;1.500;2023-05-10T02:02:48;1.52;;;0.93;;
62362;SDS011;48396;48.426;1.500;2023-05-10T02:05:15;3.08;;;1.10;;
62362;SDS011;48396;48.426;1.500;2023-05-10T02:07:42;5.03;;;1.10;;
62362;SDS011;48396;48.426;1.500;2023-05-10T02:10:09;3.88;;;1.10;;
62362;SDS011;48396;48.426;1.500;2023-05-10T02:12:36;5.35;;;1.15;;
62362;SDS011;48396;48.426;1.500;2023-05-10T02:15:06;2.85;;;1.13;;
62362;SDS011;48396;48.426;1.500;2023-05-10T02:17:34;5.60;;;1.50;;
62362;SDS011;48396;48.426;1.500;2023-05-10T02:20:02;4.40;;;1.10;;
62362;SDS011;48396;48.426;1.500;2023-05-10T02:22:29;3.97;;;1.20;;
62362;SDS011;48396;48.426;1.500;2023-05-10T02:24:56;5.28;;;1.60;;
62362;SDS011;48396;48.426;1.500;2023-05-10T02:27:23;3.15;;;1.17;;
62362;SDS011;48396;48.426;1.500;2023-05-10T02:29:50;4.03;;;0.95;;
62362;SDS011;48396;48.426;1.500;2023-05-10T02:32:17;4.32;;;1.23;;
62362;SDS011;48396;48.426;1.500;2023-05-10T02:34:44;2.75;;;1.00;;
62362;SDS011;48396;48.426;1.500;2023-05-10T02:37:14;3.72;;;1.30;;
62362;SDS011;48396;48.426;1.500;2023-05-10T02:39:41;2.63;;;1.10;;
62362;SDS011;48396;48.426;1.500;2023-05-10T02:42:11;3.28;;;1.30;;
62362;SDS011;48396;48.426;1.500;2023-05-10T02:44:40;3.65;;;0.68;;
62362;SDS011;48396;48.426;1.500;2023-05-10T02:47:08;3.78;;;1.10;;
62362;SDS011;48396;48.426;1.500;2023-05-10T02:49:33;4.30;;;1.10;;
62362;SDS011;48396;48.426;1.500;2023-05-10T02:52:00;5.38;;;1.15;;
62362;SDS011;48396;48.426;1.500;2023-05-10T02:54:45;2.25;;;0.90;;
62362;SDS011;48396;48.426;1.500;2023-05-10T02:57:17;1.92;;;0.82;;
62362;SDS011;48396;48.426;1.500;2023-05-10T02:59:48;4.13;;;1.05;;
62362;SDS011;48396;48.426;1.500;2023-05-10T03:02:14;3.60;;;0.90;;
62362;SDS011;48396;48.426;1.500;2023-05-10T03:04:39;3.58;;;1.30;;
62362;SDS011;48396;48.426;1.500;2023-05-10T03:07:05;5.38;;;1.30;;
62362;SDS011;48396;48.426;1.500;2023-05-10T03:09:31;3.15;;;1.00;;
62362;SDS011;48396;48.426;1.500;2023-05-10T03:12:04;3.13;;;1.02;;
62362;SDS011;48396;48.426;1.500;2023-05-10T03:17:35;4.00;;;0.85;;
62362;SDS011;48396;48.426;1.500;2023-05-10T03:20:12;2.75;;;0.75;;
62362;SDS011;48396;48.426;1.500;2023-05-10T03:23:05;0.90;;;0.52;;
62362;SDS011;48396;48.426;1.500;2023-05-10T03:25:36;2.53;;;0.80;;
62362;SDS011;48396;48.426;1.500;2023-05-10T03:28:03;1.27;;;0.70;;
62362;SDS011;48396;48.426;1.500;2023-05-10T03:30:30;4.50;;;0.90;;
62362;SDS011;48396;48.426;1.500;2023-05-10T03:32:56;3.42;;;0.82;;
62362;SDS011;48396;48.426;1.500;2023-05-10T03:35:22;2.67;;;0.60;;
62362;SDS011;48396;48.426;1.500;2023-05-10T03:37:49;3.05;;;1.00;;
62362;SDS011;48396;48.426;1.500;2023-05-10T03:40:14;3.40;;;0.73;;
62362;SDS011;48396;48.426;1.500;2023-05-10T03:42:40;5.30;;;1.23;;
62362;SDS011;48396;48.426;1.500;2023-05-10T03:45:06;3.47;;;1.08;;
62362;SDS011;48396;48.426;1.500;2023-05-10T03:47:32;0.95;;;0.63;;
62362;SDS011;48396;48.426;1.500;2023-05-10T03:49:58;2.63;;;0.65;;
62362;SDS011;48396;48.426;1.500;2023-05-10T03:52:24;3.35;;;1.02;;
62362;SDS011;48396;48.426;1.500;2023-05-10T03:54:50;5.47;;;0.93;;
62362;SDS011;48396;48.426;1.500;2023-05-10T03:57:15;2.00;;;0.57;;
62362;SDS011;48396;48.426;1.500;2023-05-10T03:59:41;3.25;;;0.93;;
62362;SDS011;48396;48.426;1.500;2023-05-10T04:02:06;3.85;;;0.93;;
62362;SDS011;48396;48.426;1.500;2023-05-10T04:04:32;2.92;;;1.00;;
62362;SDS011;48396;48.426;1.500;2023-05-10T04:06:58;2.85;;;1.10;;
62362;SDS011;48396;48.426;1.500;2023-05-10T04:09:23;1.50;;;0.80;;
62362;SDS011;48396;48.426;1.500;2023-05-10T04:11:49;5.40;;;1.13;;
62362;SDS011;48396;48.426;1.500;2023-05-10T04:14:14;2.55;;;0.98;;
62362;SDS011;48396;48.426;1.500;2023-05-10T04:16:41;2.75;;;1.08;;
62362;SDS011;48396;48.426;1.500;2023-05-10T04:19:07;4.93;;;1.00;;
62362;SDS011;48396;48.426;1.500;2023-05-10T04:21:32;2.47;;;0.90;;
62362;SDS011;48396;48.426;1.500;2023-05-10T04:23:58;3.03;;;1.05;;
62362;SDS011;48396;48.426;1.500;2023-05-10T04:26:23;1.95;;;0.73;;
62362;SDS011;48396;48.426;1.500;2023-05-10T04:28:50;4.28;;;0.90;;
62362;SDS011;48396;48.426;1.500;2023-05-10T04:31:16;1.70;;;0.73;;
62362;SDS011;48396;48.426;1.500;2023-05-10T04:33:42;3.60;;;0.98;;
62362;SDS011;48396;48.426;1.500;2023-05-10T04:36:07;2.95;;;0.77;;
62362;SDS011;48396;48.426;1.500;2023-05-10T04:38:33;1.30;;;0.88;;
62362;SDS011;48396;48.426;1.500;2023-05-10T04:41:08;1.90;;;0.60;;
62362;SDS011;48396;48.426;1.500;2023-05-10T04:43:35;3.22;;;0.82;;
62362;SDS011;48396;48.426;1.500;2023-05-10T04:46:01;1.67;;;0.50;;
62362;SDS011;48396;48.426;1.500;2023-05-10T04:48:27;1.50;;;0.88;;
62362;SDS011;48396;48.426;1.500;2023-05-10T04:50:53;3.20;;;0.60;;
62362;SDS011;48396;48.426;1.500;2023-05-10T04:53:18;1.75;;;0.70;;
62362;SDS011;48396;48.426;1.500;2023-05-10T04:55:44;1.85;;;0.73;;
62362;SDS011;48396;48.426;1.500;2023-05-10T04:58:10;2.45;;;0.60;;
62362;SDS011;48396;48.426;1.500;2023-05-10T05:00:35;2.65;;;0.68;;
62362;SDS011;48396;48.426;1.500;2023-05-10T05:03:01;0.52;;;0.40;;
62362;SDS011;48396;48.426;1.500;2023-05-10T05:05:27;0.98;;;0.80;;
62362;SDS011;48396;48.426;1.500;2023-05-10T05:07:52;1.58;;;0.60;;
62362;SDS011;48396;48.426;1.500;2023-05-10T05:10:18;1.45;;;0.65;;
62362;SDS011;48396;48.426;1.500;2023-05-10T05:12:43;1.30;;;0.47;;
62362;SDS011;48396;48.426;1.500;2023-05-10T05:15:09;1.70;;;0.52;;
62362;SDS011;48396;48.426;1.500;2023-05-10T05:17:35;0.50;;;0.50;;
62362;SDS011;48396;48.426;1.500;2023-05-10T05:20:01;2.67;;;0.65;;
62362;SDS011;48396;48.426;1.500;2023-05-10T05:22:27;0.95;;;0.50;;
62362;SDS011;48396;48.426;1.500;2023-05-10T05:24:56;0.85;;;0.50;;
62362;SDS011;48396;48.426;1.500;2023-05-10T05:27:23;0.52;;;0.50;;
62362;SDS011;48396;48.426;1.500;2023-05-10T05:29:54;4.45;;;1.17;;
62362;SDS011;48396;48.426;1.500;2023-05-10T05:32:20;3.03;;;0.90;;
62362;SDS011;48396;48.426;1.500;2023-05-10T05:34:47;2.20;;;0.80;;
62362;SDS011;48396;48.426;1.500;2023-05-10T05:37:13;2.95;;;0.80;;
62362;SDS011;48396;48.426;1.500;2023-05-10T05:39:39;1.92;;;0.85;;
62362;SDS011;48396;48.426;1.500;2023-05-10T05:42:05;2.00;;;1.13;;
62362;SDS011;48396;48.426;1.500;2023-05-10T05:44:31;3.38;;;1.00;;
62362;SDS011;48396;48.426;1.500;2023-05-10T05:46:56;5.82;;;0.90;;
62362;SDS011;48396;48.426;1.500;2023-05-10T05:49:22;3.22;;;0.88;;
62362;SDS011;48396;48.426;1.500;2023-05-10T05:51:47;1.83;;;0.95;;
62362;SDS011;48396;48.426;1.500;2023-05-10T05:54:15;3.25;;;1.00;;
62362;SDS011;48396;48.426;1.500;2023-05-10T05:56:40;1.92;;;0.80;;
62362;SDS011;48396;48.426;1.500;2023-05-10T05:59:06;1.90;;;0.75;;
62362;SDS011;48396;48.426;1.500;2023-05-10T06:01:32;2.70;;;0.93;;
62362;SDS011;48396;48.426;1.500;2023-05-10T06:03:57;4.25;;;0.90;;
62362;SDS011;48396;48.426;1.500;2023-05-10T06:06:23;3.08;;;1.08;;
62362;SDS011;48396;48.426;1.500;2023-05-10T06:08:48;4.65;;;1.13;;
62362;SDS011;48396;48.426;1.500;2023-05-10T06:11:14;4.88;;;1.25;;
62362;SDS011;48396;48.426;1.500;2023-05-10T06:13:40;5.53;;;1.52;;
62362;SDS011;48396;48.426;1.500;2023-05-10T06:16:07;9.85;;;2.08;;
62362;SDS011;48396;48.426;1.500;2023-05-10T06:18:32;9.70;;;1.95;;
62362;SDS011;48396;48.426;1.500;2023-05-10T06:20:58;11.45;;;2.72;;
62362;SDS011;48396;48.426;1.500;2023-05-10T06:23:24;7.03;;;1.92;;
62362;SDS011;48396;48.426;1.500;2023-05-10T06:25:50;10.50;;;2.50;;
62362;SDS011;48396;48.426;1.500;2023-05-10T06:28:16;15.38;;;3.10;;
62362;SDS011;48396;48.426;1.500;2023-05-10T06:30:42;15.38;;;2.83;;
62362;SDS011;48396;48.426;1.500;2023-05-10T06:33:07;14.65;;;2.78;;
62362;SDS011;48396;48.426;1.500;2023-05-10T06:35:33;13.45;;;2.85;;
62362;SDS011;48396;48.426;1.500;2023-05-10T06:37:59;12.02;;;3.30;;
62362;SDS011;48396;48.426;1.500;2023-05-10T06:40:24;8.90;;;2.92;;
62362;SDS011;48396;48.426;1.500;2023-05-10T06:42:50;14.77;;;3.05;;
62362;SDS011;48396;48.426;1.500;2023-05-10T06:45:16;14.70;;;2.85;;
62362;SDS011;48396;48.426;1.500;2023-05-10T06:47:42;13.90;;;2.95;;
62362;SDS011;48396;48.426;1.500;2023-05-10T06:50:08;14.32;;;3.15;;
62362;SDS011;48396;48.426;1.500;2023-05-10T06:52:35;12.57;;;2.90;;
62362;SDS011;48396;48.426;1.500;2023-05-10T06:55:01;12.27;;;3.20;;
62362;SDS011;48396;48.426;1.500;2023-05-10T06:57:26;12.48;;;3.20;;
62362;SDS011;48396;48.426;1.500;2023-05-10T06:59:52;11.25;;;2.72;;
62362;SDS011;48396;48.426;1.500;2023-05-10T07:02:18;16.27;;;3.13;;
62362;SDS011;48396;48.426;1.500;2023-05-10T07:04:43;11.00;;;2.78;;
62362;SDS011;48396;48.426;1.500;2023-05-10T07:07:09;18.52;;;3.30;;
62362;SDS011;48396;48.426;1.500;2023-05-10T07:09:34;13.95;;;3.05;;
62362;SDS011;48396;48.426;1.500;2023-05-10T07:12:00;16.80;;;3.40;;
62362;SDS011;48396;48.426;1.500;2023-05-10T07:14:26;8.48;;;2.72;;
62362;SDS011;48396;48.426;1.500;2023-05-10T07:16:52;9.75;;;2.72;;
62362;SDS011;48396;48.426;1.500;2023-05-10T07:19:18;12.27;;;2.70;;
62362;SDS011;48396;48.426;1.500;2023-05-10T07:21:44;18.67;;;3.42;;
62362;SDS011;48396;48.426;1.500;2023-05-10T07:24:28;15.60;;;3.42;;
62362;SDS011;48396;48.426;1.500;2023-05-10T07:26:53;15.20;;;3.75;;
62362;SDS011;48396;48.426;1.500;2023-05-10T07:29:19;18.08;;;3.45;;
62362;SDS011;48396;48.426;1.500;2023-05-10T07:31:45;14.38;;;2.90;;
62362;SDS011;48396;48.426;1.500;2023-05-10T07:34:10;14.85;;;3.03;;
62362;SDS011;48396;48.426;1.500;2023-05-10T07:36:36;14.43;;;2.70;;
62362;SDS011;48396;48.426;1.500;2023-05-10T07:39:01;16.92;;;3.22;;
62362;SDS011;48396;48.426;1.500;2023-05-10T07:41:27;16.05;;;3.60;;
62362;SDS011;48396;48.426;1.500;2023-05-10T07:43:52;16.33;;;3.55;;
62362;SDS011;48396;48.426;1.500;2023-05-10T07:46:18;15.40;;;3.60;;
62362;SDS011;48396;48.426;1.500;2023-05-10T07:48:44;18.58;;;3.80;;
62362;SDS011;48396;48.426;1.500;2023-05-10T07:51:10;17.25;;;3.25;;
62362;SDS011;48396;48.426;1.500;2023-05-10T07:53:36;18.42;;;3.80;;
62362;SDS011;48396;48.426;1.500;2023-05-10T07:56:19;14.30;;;3.58;;
62362;SDS011;48396;48.426;1.500;2023-05-10T07:58:48;16.67;;;3.55;;
62362;SDS011;48396;48.426;1.500;2023-05-10T08:01:13;13.07;;;3.05;;
62362;SDS011;48396;48.426;1.500;2023-05-10T08:03:39;13.23;;;3.20;;
62362;SDS011;48396;48.426;1.500;2023-05-10T08:06:05;19.73;;;4.20;;
62362;SDS011;48396;48.426;1.500;2023-05-10T08:08:31;13.98;;;3.17;;
62362;SDS011;48396;48.426;1.500;2023-05-10T08:10:56;16.27;;;3.30;;
62362;SDS011;48396;48.426;1.500;2023-05-10T08:13:22;15.55;;;3.25;;
62362;SDS011;48396;48.426;1.500;2023-05-10T08:15:47;16.05;;;3.80;;
62362;SDS011;48396;48.426;1.500;2023-05-10T08:18:13;12.65;;;2.90;;
62362;SDS011;48396;48.426;1.500;2023-05-10T08:20:38;16.63;;;2.88;;
62362;SDS011;48396;48.426;1.500;2023-05-10T08:23:04;15.45;;;3.13;;
62362;SDS011;48396;48.426;1.500;2023-05-10T08:25:30;14.65;;;2.97;;
62362;SDS011;48396;48.426;1.500;2023-05-10T08:27:56;17.55;;;3.00;;
62362;SDS011;48396;48.426;1.500;2023-05-10T08:30:22;10.20;;;3.20;;
62362;SDS011;48396;48.426;1.500;2023-05-10T08:32:47;14.85;;;2.92;;
62362;SDS011;48396;48.426;1.500;2023-05-10T08:35:13;15.45;;;3.28;;
62362;SDS011;48396;48.426;1.500;2023-05-10T08:37:38;12.57;;;3.03;;
62362;SDS011;48396;48.426;1.500;2023-05-10T08:40:04;14.43;;;3.20;;
62362;SDS011;48396;48.426;1.500;2023-05-10T08:42:30;16.92;;;3.35;;
62362;SDS011;48396;48.426;1.500;2023-05-10T08:45:01;14.50;;;2.90;;
62362;SDS011;48396;48.426;1.500;2023-05-10T08:47:28;13.85;;;3.75;;
62362;SDS011;48396;48.426;1.500;2023-05-10T08:49:54;15.77;;;3.95;;
62362;SDS011;48396;48.426;1.500;2023-05-10T08:52:21;21.00;;;4.10;;
62362;SDS011;48396;48.426;1.500;2023-05-10T08:54:51;16.98;;;3.53;;
62362;SDS011;48396;48.426;1.500;2023-05-10T08:57:17;11.18;;;2.80;;
62362;SDS011;48396;48.426;1.500;2023-05-10T08:59:43;12.43;;;2.72;;
62362;SDS011;48396;48.426;1.500;2023-05-10T09:02:09;13.90;;;2.72;;
62362;SDS011;48396;48.426;1.500;2023-05-10T09:04:36;11.85;;;2.70;;
62362;SDS011;48396;48.426;1.500;2023-05-10T09:07:02;9.90;;;2.30;;
62362;SDS011;48396;48.426;1.500;2023-05-10T09:09:27;11.25;;;2.40;;
62362;SDS011;48396;48.426;1.500;2023-05-10T09:11:53;11.35;;;2.83;;
62362;SDS011;48396;48.426;1.500;2023-05-10T09:14:19;13.40;;;2.47;;
62362;SDS011;48396;48.426;1.500;2023-05-10T09:16:47;8.05;;;2.67;;
62362;SDS011;48396;48.426;1.500;2023-05-10T09:19:12;11.65;;;2.97;;
62362;SDS011;48396;48.426;1.500;2023-05-10T09:21:38;8.85;;;2.60;;
62362;SDS011;48396;48.426;1.500;2023-05-10T09:24:08;13.82;;;2.60;;
62362;SDS011;48396;48.426;1.500;2023-05-10T09:26:34;10.85;;;2.50;;
62362;SDS011;48396;48.426;1.500;2023-05-10T09:29:01;12.30;;;2.83;;
62362;SDS011;48396;48.426;1.500;2023-05-10T09:31:47;12.55;;;2.78;;
62362;SDS011;48396;48.426;1.500;2023-05-10T09:34:19;8.43;;;2.90;;
62362;SDS011;48396;48.426;1.500;2023-05-10T09:36:52;12.75;;;2.90;;
62362;SDS011;48396;48.426;1.500;2023-05-10T09:39:34;11.85;;;2.65;;
62362;SDS011;48396;48.426;1.500;2023-05-10T09:42:03;10.63;;;2.72;;
62362;SDS011;48396;48.426;1.500;2023-05-10T09:44:30;10.00;;;2.47;;
62362;SDS011;48396;48.426;1.500;2023-05-10T09:46:57;12.02;;;2.47;;
62362;SDS011;48396;48.426;1.500;2023-05-10T09:49:23;14.95;;;2.85;;
62362;SDS011;48396;48.426;1.500;2023-05-10T09:52:07;9.10;;;2.65;;
62362;SDS011;48396;48.426;1.500;2023-05-10T09:54:33;11.57;;;3.05;;
62362;SDS011;48396;48.426;1.500;2023-05-10T09:56:59;10.63;;;2.60;;
62362;SDS011;48396;48.426;1.500;2023-05-10T09:59:26;10.07;;;2.70;;
62362;SDS011;48396;48.426;1.500;2023-05-10T10:01:53;9.95;;;2.33;;
62362;SDS011;48396;48.426;1.500;2023-05-10T10:04:21;11.45;;;2.65;;
62362;SDS011;48396;48.426;1.500;2023-05-10T10:06:51;8.70;;;2.30;;
62362;SDS011;48396;48.426;1.500;2023-05-10T10:09:24;10.80;;;2.92;;
62362;SDS011;48396;48.426;1.500;2023-05-10T10:11:50;13.27;;;2.28;;
62362;SDS011;48396;48.426;1.500;2023-05-10T10:14:17;10.18;;;2.28;;
62362;SDS011;48396;48.426;1.500;2023-05-10T10:16:43;12.50;;;2.60;;
62362;SDS011;48396;48.426;1.500;2023-05-10T10:19:09;5.90;;;2.17;;
62362;SDS011;48396;48.426;1.500;2023-05-10T10:21:35;9.32;;;3.03;;
62362;SDS011;48396;48.426;1.500;2023-05-10T10:24:01;12.90;;;2.30;;
62362;SDS011;48396;48.426;1.500;2023-05-10T10:26:26;11.50;;;2.38;;
62362;SDS011;48396;48.426;1.500;2023-05-10T10:31:47;14.57;;;2.88;;
62362;SDS011;48396;48.426;1.500;2023-05-10T10:34:25;9.55;;;2.10;;
62362;SDS011;48396;48.426;1.500;2023-05-10T10:36:52;8.63;;;2.22;;
62362;SDS011;48396;48.426;1.500;2023-05-10T10:39:19;14.35;;;4.00;;
62362;SDS011;48396;48.426;1.500;2023-05-10T10:41:49;8.13;;;2.42;;
62362;SDS011;48396;48.426;1.500;2023-05-10T10:52:13;12.73;;;2.45;;
62362;SDS011;48396;48.426;1.500;2023-05-10T11:00:32;8.55;;;2.60;;
62362;SDS011;48396;48.426;1.500;2023-05-10T11:03:04;7.95;;;2.40;;
62362;SDS011;48396;48.426;1.500;2023-05-10T11:05:36;11.45;;;2.40;;
62362;SDS011;48396;48.426;1.500;2023-05-10T11:13:57;8.27;;;2.40;;
62362;SDS011;48396;48.426;1.500;2023-05-10T11:18:59;6.93;;;2.60;;
62362;SDS011;48396;48.426;1.500;2023-05-10T11:21:31;9.93;;;2.90;;
62362;SDS011;48396;48.426;1.500;2023-05-10T11:23:58;10.45;;;2.30;;
62362;SDS011;48396;48.426;1.500;2023-05-10T11:26:32;11.45;;;1.95;;
62362;SDS011;48396;48.426;1.500;2023-05-10T11:28:59;13.30;;;2.28;;
62362;SDS011;48396;48.426;1.500;2023-05-10T11:31:26;7.75;;;1.90;;
62362;SDS011;48396;48.426;1.500;2023-05-10T11:33:53;7.32;;;2.15;;
62362;SDS011;48396;48.426;1.500;2023-05-10T11:36:25;10.98;;;2.05;;
62362;SDS011;48396;48.426;1.500;2023-05-10T11:38:53;7.78;;;1.63;;
62362;SDS011;48396;48.426;1.500;2023-05-10T11:41:20;9.73;;;1.95;;
62362;SDS011;48396;48.426;1.500;2023-05-10T11:43:48;4.78;;;1.70;;
62362;SDS011;48396;48.426;1.500;2023-05-10T11:46:16;8.27;;;1.85;;
62362;SDS011;48396;48.426;1.500;2023-05-10T11:48:45;12.00;;;2.15;;
62362;SDS011;48396;48.426;1.500;2023-05-10T11:51:11;4.25;;;1.50;;
62362;SDS011;48396;48.426;1.500;2023-05-10T11:53:37;6.40;;;2.20;;
62362;SDS011;48396;48.426;1.500;2023-05-10T11:56:06;7.72;;;1.60;;
62362;SDS011;48396;48.426;1.500;2023-05-10T11:58:33;7.95;;;1.80;;
62362;SDS011;48396;48.426;1.500;2023-05-10T12:00:59;6.47;;;1.83;;
62362;SDS011;48396;48.426;1.500;2023-05-10T12:03:29;9.13;;;1.60;;
62362;SDS011;48396;48.426;1.500;2023-05-10T12:05:55;7.38;;;1.90;;
62362;SDS011;48396;48.426;1.500;2023-05-10T12:08:22;8.00;;;2.22;;
62362;SDS011;48396;48.426;1.500;2023-05-10T12:10:49;7.57;;;2.03;;
62362;SDS011;48396;48.426;1.500;2023-05-10T12:13:14;5.32;;;1.65;;
62362;SDS011;48396;48.426;1.500;2023-05-10T12:15:40;6.22;;;1.60;;
62362;SDS011;48396;48.426;1.500;2023-05-10T12:18:11;7.18;;;1.88;;
62362;SDS011;48396;48.426;1.500;2023-05-10T12:20:38;8.02;;;1.85;;
62362;SDS011;48396;48.426;1.500;2023-05-10T12:23:04;8.27;;;2.03;;
62362;SDS011;48396;48.426;1.500;2023-05-10T12:25:34;9.93;;;2.13;;
62362;SDS011;48396;48.426;1.500;2023-05-10T12:28:04;9.60;;;1.95;;
62362;SDS011;48396;48.426;1.500;2023-05-10T12:30:49;10.23;;;2.13;;
62362;SDS011;48396;48.426;1.500;2023-05-10T12:33:18;6.10;;;1.42;;
62362;SDS011;48396;48.426;1.500;2023-05-10T12:35:44;9.93;;;2.60;;
62362;SDS011;48396;48.426;1.500;2023-05-10T12:38:37;7.75;;;2.28;;
62362;SDS011;48396;48.426;1.500;2023-05-10T12:41:09;6.55;;;1.63;;
62362;SDS011;48396;48.426;1.500;2023-05-10T12:43:36;5.72;;;1.83;;
62362;SDS011;48396;48.426;1.500;2023-05-10T12:46:20;8.85;;;1.90;;
62362;SDS011;48396;48.426;1.500;2023-05-10T12:48:45;7.20;;;1.48;;
62362;SDS011;48396;48.426;1.500;2023-05-10T12:51:14;9.70;;;1.88;;
62362;SDS011;48396;48.426;1.500;2023-05-10T12:53:42;6.38;;;1.35;;
62362;SDS011;48396;48.426;1.500;2023-05-10T12:56:10;8.10;;;1.63;;
62362;SDS011;48396;48.426;1.500;2023-05-10T12:58:36;6.95;;;2.13;;
62362;SDS011;48396;48.426;1.500;2023-05-10T13:01:01;5.88;;;1.40;;
62362;SDS011;48396;48.426;1.500;2023-05-10T13:03:27;5.82;;;1.52;;
62362;SDS011;48396;48.426;1.500;2023-05-10T13:05:53;4.88;;;1.50;;
62362;SDS011;48396;48.426;1.500;2023-05-10T13:08:18;3.35;;;1.40;;
62362;SDS011;48396;48.426;1.500;2023-05-10T13:10:44;4.85;;;1.60;;
62362;SDS011;48396;48.426;1.500;2023-05-10T13:13:10;5.60;;;1.30;;
62362;SDS011;48396;48.426;1.500;2023-05-10T13:15:35;8.48;;;1.65;;
62362;SDS011;48396;48.426;1.500;2023-05-10T13:18:01;6.90;;;1.42;;
62362;SDS011;48396;48.426;1.500;2023-05-10T13:20:26;5.43;;;2.03;;
62362;SDS011;48396;48.426;1.500;2023-05-10T13:22:52;6.95;;;1.73;;
62362;SDS011;48396;48.426;1.500;2023-05-10T13:25:18;5.13;;;1.13;;
62362;SDS011;48396;48.426;1.500;2023-05-10T13:27:44;6.07;;;1.45;;
62362;SDS011;48396;48.426;1.500;2023-05-10T13:30:10;3.38;;;1.67;;
62362;SDS011;48396;48.426;1.500;2023-05-10T13:32:36;4.30;;;1.10;;
62362;SDS011;48396;48.426;1.500;2023-05-10T13:35:03;4.70;;;1.60;;
62362;SDS011;48396;48.426;1.500;2023-05-10T13:37:30;3.63;;;1.65;;
62362;SDS011;48396;48.426;1.500;2023-05-10T13:39:56;3.85;;;1.30;;
62362;SDS011;48396;48.426;1.500;2023-05-10T13:42:22;3.92;;;1.63;;
62362;SDS011;48396;48.426;1.500;2023-05-10T13:44:49;4.82;;;1.48;;
62362;SDS011;48396;48.426;1.500;2023-05-10T13:47:15;4.50;;;1.40;;
62362;SDS011;48396;48.426;1.500;2023-05-10T13:49:41;1.52;;;1.13;;
62362;SDS011;48396;48.426;1.500;2023-05-10T13:52:06;5.13;;;1.50;;
62362;SDS011;48396;48.426;1.500;2023-05-10T13:54:38;4.43;;;1.73;;
62362;SDS011;48396;48.426;1.500;2023-05-10T13:59:29;2.75;;;1.17;;
62362;SDS011;48396;48.426;1.500;2023-05-10T14:01:58;5.55;;;1.25;;
62362;SDS011;48396;48.426;1.500;2023-05-10T14:04:25;4.63;;;1.17;;
62362;SDS011;48396;48.426;1.500;2023-05-10T14:06:50;1.75;;;0.75;;
62362;SDS011;48396;48.426;1.500;2023-05-10T14:09:17;2.58;;;1.17;;
62362;SDS011;48396;48.426;1.500;2023-05-10T14:11:43;5.35;;;1.10;;
62362;SDS011;48396;48.426;1.500;2023-05-10T14:14:09;3.38;;;1.10;;
62362;SDS011;48396;48.426;1.500;2023-05-10T14:16:35;4.78;;;1.10;;
62362;SDS011;48396;48.426;1.500;2023-05-10T14:19:01;2.92;;;1.10;;
62362;SDS011;48396;48.426;1.500;2023-05-10T14:21:26;2.03;;;1.10;;
62362;SDS011;48396;48.426;1.500;2023-05-10T14:23:54;1.17;;;0.80;;
62362;SDS011;48396;48.426;1.500;2023-05-10T14:26:20;4.18;;;1.00;;
62362;SDS011;48396;48.426;1.500;2023-05-10T14:28:46;3.00;;;0.82;;
62362;SDS011;48396;48.426;1.500;2023-05-10T14:31:12;1.10;;;0.73;;
62362;SDS011;48396;48.426;1.500;2023-05-10T14:33:37;2.00;;;0.73;;
62362;SDS011;48396;48.426;1.500;2023-05-10T14:36:03;1.77;;;0.70;;
62362;SDS011;48396;48.426;1.500;2023-05-10T14:38:29;1.42;;;0.73;;
62362;SDS011;48396;48.426;1.500;2023-05-10T14:40:54;1.38;;;0.60;;
62362;SDS011;48396;48.426;1.500;2023-05-10T14:43:20;1.58;;;0.60;;
62362;SDS011;48396;48.426;1.500;2023-05-10T14:45:45;2.92;;;0.70;;
62362;SDS011;48396;48.426;1.500;2023-05-10T14:48:12;3.10;;;0.80;;
62362;SDS011;48396;48.426;1.500;2023-05-10T14:50:40;2.85;;;0.82;;
62362;SDS011;48396;48.426;1.500;2023-05-10T14:53:06;3.63;;;1.00;;
62362;SDS011;48396;48.426;1.500;2023-05-10T14:55:31;3.53;;;1.10;;
62362;SDS011;48396;48.426;1.500;2023-05-10T14:57:57;4.35;;;1.20;;
62362;SDS011;48396;48.426;1.500;2023-05-10T15:00:23;4.88;;;1.25;;
62362;SDS011;48396;48.426;1.500;2023-05-10T15:02:49;3.40;;;1.10;;
62362;SDS011;48396;48.426;1.500;2023-05-10T15:05:14;2.53;;;1.02;;
62362;SDS011;48396;48.426;1.500;2023-05-10T15:07:40;3.60;;;1.05;;
62362;SDS011;48396;48.426;1.500;2023-05-10T15:10:08;5.78;;;1.40;;
62362;SDS011;48396;48.426;1.500;2023-05-10T15:12:34;6.40;;;1.50;;
62362;SDS011;48396;48.426;1.500;2023-05-10T15:15:00;7.72;;;1.67;;
62362;SDS011;48396;48.426;1.500;2023-05-10T15:17:25;2.78;;;1.38;;
62362;SDS011;48396;48.426;1.500;2023-05-10T15:19:51;4.30;;;1.42;;
62362;SDS011;48396;48.426;1.500;2023-05-10T15:22:17;5.82;;;1.60;;
62362;SDS011;48396;48.426;1.500;2023-05-10T15:24:42;2.42;;;0.93;;